Time;durP1;ratioP1;P1;durP2;ratioP2;P2;SDS_P1;SDS_P2;PMS_P1;PMS_P2;Temp;Humidity;BMP_temperature;BMP_pressure;BME280_temperature;BME280_humidity;BME280_pressure;Samples;Min_cycle;Max_cycle;Signal;HPM_P1;HPM_P2
2022/06/27 00:01:55;;;;;;;2.85;2.50;;;23.90;77.20;;;;;;5010476;28;20282;-77
2022/06/27 00:04:21;;;;;;;2.80;2.60;;;23.90;77.30;;;;;;5011564;28;20223;-78
2022/06/27 00:06:47;;;;;;;2.70;2.25;;;23.90;77.60;;;;;;5011255;28;20192;-76
2022/06/27 00:09:12;;;;;;;2.30;2.10;;;23.90;77.70;;;;;;5011020;28;20203;-76
2022/06/27 00:11:38;;;;;;;2.90;2.70;;;23.90;77.60;;;;;;5011189;28;20184;-76
2022/06/27 00:14:04;;;;;;;2.72;2.47;;;23.90;77.20;;;;;;5010758;28;20192;-76
2022/06/27 00:16:30;;;;;;;2.38;2.28;;;23.90;77.90;;;;;;5011061;28;20187;-77
2022/06/27 00:18:56;;;;;;;2.85;2.65;;;23.90;77.50;;;;;;5028442;28;20199;-77
2022/06/27 00:21:21;;;;;;;2.50;2.30;;;23.90;77.80;;;;;;5015446;28;20230;-76
2022/06/27 00:23:47;;;;;;;2.38;2.17;;;23.80;77.70;;;;;;5014750;28;20219;-76
2022/06/27 00:26:13;;;;;;;2.88;2.67;;;23.90;78.70;;;;;;5014980;28;20180;-77
2022/06/27 00:28:39;;;;;;;2.60;2.40;;;23.90;78.00;;;;;;5015154;28;20186;-77
2022/06/27 00:31:05;;;;;;;2.70;2.50;;;23.90;78.00;;;;;;5015005;28;20184;-76
2022/06/27 00:33:30;;;;;;;2.70;2.50;;;23.90;78.30;;;;;;4998310;28;20594;-77
2022/06/27 00:35:56;;;;;;;2.65;2.45;;;23.90;77.90;;;;;;5033865;28;20183;-76
2022/06/27 00:38:23;;;;;;;2.65;2.33;;;23.90;77.90;;;;;;5034544;28;20183;-76
2022/06/27 00:40:49;;;;;;;2.70;2.50;;;23.90;78.50;;;;;;5034402;28;20210;-76
2022/06/27 00:43:15;;;;;;;2.50;2.30;;;23.90;78.10;;;;;;5034221;28;20186;-76
2022/06/27 00:45:41;;;;;;;2.35;2.25;;;23.90;78.00;;;;;;5034475;28;20297;-76
2022/06/27 00:48:07;;;;;;;2.70;2.50;;;23.90;78.10;;;;;;5034605;28;20299;-76
2022/06/27 00:50:33;;;;;;;2.45;2.25;;;23.90;78.30;;;;;;5034348;28;20641;-76
2022/06/27 00:53:00;;;;;;;2.85;2.65;;;23.90;78.10;;;;;;5033714;28;20655;-77
2022/06/27 00:55:29;;;;;;;2.70;2.50;;;23.90;78.20;;;;;;5034099;28;20187;-76
2022/06/27 00:57:55;;;;;;;2.60;2.40;;;23.90;78.40;;;;;;5017728;28;20194;-77
2022/06/27 01:00:22;;;;;;;2.50;2.30;;;23.90;78.30;;;;;;5033797;28;20207;-76
2022/06/27 01:02:48;;;;;;;2.50;2.35;;;23.90;78.60;;;;;;5033728;28;20168;-76
2022/06/27 01:05:14;;;;;;;3.08;2.58;;;23.90;78.50;;;;;;5034143;28;20203;-76
2022/06/27 01:07:41;;;;;;;2.30;2.20;;;23.80;78.50;;;;;;5017440;28;20665;-75
2022/06/27 01:10:08;;;;;;;2.58;2.38;;;23.80;78.70;;;;;;5033994;28;20210;-77
2022/06/27 01:12:34;;;;;;;2.45;2.25;;;23.80;78.70;;;;;;5033430;28;20183;-76
2022/06/27 01:15:01;;;;;;;2.60;2.00;;;23.90;78.70;;;;;;5034161;28;20184;-76
2022/06/27 01:17:28;;;;;;;2.13;2.03;;;23.90;78.70;;;;;;5017505;28;20210;-76
2022/06/27 01:19:54;;;;;;;2.55;2.38;;;23.90;78.40;;;;;;5033840;28;20222;-75
2022/06/27 01:22:21;;;;;;;2.55;2.35;;;23.90;78.40;;;;;;5033491;28;20187;-76
2022/06/27 01:24:47;;;;;;;2.40;2.20;;;23.90;78.30;;;;;;5033909;28;20219;-76
2022/06/27 01:27:13;;;;;;;3.22;2.53;;;23.90;78.50;;;;;;5033766;28;20183;-77
2022/06/27 01:29:39;;;;;;;2.60;2.40;;;23.90;78.30;;;;;;5033310;28;20203;-76
2022/06/27 01:32:08;;;;;;;2.70;2.50;;;23.90;78.30;;;;;;5016651;28;20600;-76
2022/06/27 01:34:34;;;;;;;2.33;2.22;;;23.90;78.30;;;;;;5033490;28;20187;-77
2022/06/27 01:37:02;;;;;;;2.60;2.10;;;23.90;78.20;;;;;;5016895;28;20570;-76
2022/06/27 01:39:28;;;;;;;2.35;2.20;;;23.90;78.20;;;;;;5033272;28;20211;-76
2022/06/27 01:42:04;;;;;;;2.25;2.15;;;23.90;78.20;;;;;;5033361;28;20670;-77
2022/06/27 01:44:33;;;;;;;2.53;2.15;;;23.90;78.20;;;;;;5033585;28;20634;-76
2022/06/27 01:46:59;;;;;;;2.40;2.13;;;23.90;78.20;;;;;;5017040;28;20171;-76
2022/06/27 01:49:28;;;;;;;2.45;2.25;;;23.90;78.30;;;;;;5016927;28;20674;-77
2022/06/27 01:51:57;;;;;;;2.40;2.20;;;23.90;78.30;;;;;;5033553;28;20186;-77
2022/06/27 01:54:25;;;;;;;2.47;2.28;;;23.90;78.30;;;;;;5032037;28;20191;-76
2022/06/27 01:56:53;;;;;;;2.70;2.50;;;23.90;78.30;;;;;;5032890;28;20188;-76
2022/06/27 01:59:27;;;;;;;2.30;2.20;;;23.90;78.30;;;;;;5032981;28;20245;-76
2022/06/27 02:01:59;;;;;;;2.00;1.90;;;23.90;78.30;;;;;;5032988;28;20198;-76
2022/06/27 02:04:28;;;;;;;2.20;2.10;;;23.90;78.30;;;;;;5032420;28;20235;-76
2022/06/27 02:06:55;;;;;;;2.50;2.30;;;23.90;78.30;;;;;;5033110;28;20187;-76
2022/06/27 02:09:22;;;;;;;1.95;1.80;;;23.90;78.30;;;;;;5032835;28;20199;-77
2022/06/27 02:11:51;;;;;;;2.17;2.00;;;23.90;78.30;;;;;;5016406;28;20171;-77
2022/06/27 02:14:19;;;;;;;1.92;1.83;;;23.90;78.30;;;;;;5032377;28;20305;-76
2022/06/27 02:16:45;;;;;;;2.10;2.00;;;23.80;78.30;;;;;;5016100;28;20187;-76
2022/06/27 02:19:18;;;;;;;2.05;1.95;;;23.90;78.40;;;;;;5032628;28;20211;-76
2022/06/27 02:21:44;;;;;;;1.95;1.85;;;23.80;78.30;;;;;;5031672;28;20314;-76
2022/06/27 02:24:11;;;;;;;2.10;2.00;;;23.90;78.40;;;;;;5032225;28;20215;-77
2022/06/27 02:26:38;;;;;;;2.35;2.05;;;23.80;78.30;;;;;;5015355;28;20187;-76
2022/06/27 02:29:05;;;;;;;2.25;2.05;;;23.90;78.40;;;;;;5031553;28;20206;-76
2022/06/27 02:31:32;;;;;;;1.88;1.77;;;23.90;78.60;;;;;;5027356;28;20264;-76
2022/06/27 02:33:58;;;;;;;2.15;2.05;;;23.80;78.40;;;;;;5011453;28;20207;-77
2022/06/27 02:36:33;;;;;;;2.00;1.90;;;23.80;78.50;;;;;;5011740;28;20192;-76
2022/06/27 02:39:02;;;;;;;1.90;1.80;;;23.90;78.60;;;;;;5011731;28;20659;-76
2022/06/27 02:41:33;;;;;;;1.83;1.73;;;23.80;78.50;;;;;;5012072;28;20173;-76
2022/06/27 02:44:08;;;;;;;2.00;1.90;;;23.80;78.50;;;;;;5015182;28;20649;-76
2022/06/27 02:46:34;;;;;;;1.60;1.50;;;23.80;78.50;;;;;;5031143;28;20190;-76
2022/06/27 02:49:02;;;;;;;1.90;1.80;;;23.80;78.50;;;;;;5031230;28;20210;-77
2022/06/27 02:51:54;;;;;;;1.90;1.80;;;23.80;78.50;;;;;;5031575;28;20266;-76
2022/06/27 02:54:39;;;;;;;1.95;1.85;;;23.80;78.50;;;;;;5030853;28;20176;-76
2022/06/27 02:57:40;;;;;;;1.83;1.73;;;23.80;78.50;;;;;;5031098;28;20179;-77
2022/06/27 03:00:08;;;;;;;2.58;1.73;;;23.80;78.50;;;;;;5014537;28;20297;-76
2022/06/27 03:02:42;;;;;;;1.75;1.63;;;23.80;78.50;;;;;;5030685;28;20191;-76
2022/06/27 03:06:02;;;;;;;2.10;1.90;;;23.80;78.50;;;;;;5021031;28;20226;-76
2022/06/27 03:08:47;;;;;;;1.80;1.70;;;23.80;78.40;;;;;;5030967;28;20190;-77
2022/06/27 03:11:21;;;;;;;1.70;1.60;;;23.80;78.50;;;;;;5030857;28;20191;-77
2022/06/27 03:13:50;;;;;;;1.80;1.70;;;23.80;78.40;;;;;;5030360;28;20178;-77
2022/06/27 03:16:18;;;;;;;2.00;1.90;;;23.80;78.50;;;;;;5030838;28;20240;-76
2022/06/27 03:18:44;;;;;;;1.90;1.80;;;23.80;78.40;;;;;;4992714;28;1101479;-76
2022/06/27 03:21:29;;;;;;;1.77;1.67;;;23.80;78.40;;;;;;5031867;28;20250;-77
2022/06/27 03:24:00;;;;;;;1.42;1.33;;;23.80;78.40;;;;;;5030774;28;20694;-76
2022/06/27 03:26:27;;;;;;;1.60;1.50;;;23.80;78.40;;;;;;5031463;28;20190;-76
2022/06/27 03:28:53;;;;;;;1.70;1.60;;;23.80;78.50;;;;;;5031482;28;20203;-76
2022/06/27 03:31:20;;;;;;;1.60;1.50;;;23.80;78.50;;;;;;5031771;28;20190;-76
2022/06/27 03:33:49;;;;;;;1.63;1.52;;;23.80;78.50;;;;;;5030925;28;20176;-77
2022/06/27 03:36:30;;;;;;;1.70;1.60;;;23.80;78.40;;;;;;5031429;28;20594;-77
2022/06/27 03:38:55;;;;;;;1.63;1.52;;;23.80;78.50;;;;;;5031600;28;20198;-76
2022/06/27 03:41:22;;;;;;;1.65;1.55;;;23.80;78.50;;;;;;5031315;28;20270;-76
2022/06/27 03:43:49;;;;;;;1.58;1.48;;;23.80;78.50;;;;;;5030710;28;20181;-76
2022/06/27 03:46:17;;;;;;;1.60;1.50;;;23.80;78.60;;;;;;5031561;28;20252;-76
2022/06/27 03:51:40;;;;;;;1.60;1.50;;;23.80;78.60;;;;;;5031490;28;20182;-76
2022/06/27 03:54:06;;;;;;;1.65;1.55;;;23.80;78.60;;;;;;5029515;28;20183;-76
2022/06/27 03:56:32;;;;;;;1.55;1.45;;;23.80;78.60;;;;;;5030983;28;20190;-76
2022/06/27 03:58:58;;;;;;;1.50;1.40;;;23.80;78.60;;;;;;5047651;28;20183;-76
2022/06/27 04:01:25;;;;;;;1.38;1.27;;;23.80;78.60;;;;;;5030793;28;20655;-77
2022/06/27 04:03:51;;;;;;;1.65;1.52;;;23.80;78.60;;;;;;5047308;28;20183;-76
2022/06/27 04:06:18;;;;;;;1.50;1.40;;;23.80;78.60;;;;;;5030988;28;20171;-76
2022/06/27 04:08:46;;;;;;;1.40;1.30;;;23.80;78.60;;;;;;5030908;28;20191;-77
2022/06/27 04:11:12;;;;;;;1.42;1.33;;;23.80;78.50;;;;;;5031052;28;20194;-76
2022/06/27 04:13:41;;;;;;;1.50;1.40;;;23.80;78.50;;;;;;5030303;28;20176;-76
2022/06/27 04:16:07;;;;;;;1.85;1.70;;;23.80;78.60;;;;;;5031047;28;20201;-76
2022/06/27 04:18:54;;;;;;;1.33;1.23;;;23.80;78.60;;;;;;5032355;28;20261;-76
2022/06/27 04:21:38;;;;;;;1.70;1.60;;;23.80;78.70;;;;;;5031242;28;20559;-75
2022/06/27 04:24:12;;;;;;;1.65;1.55;;;23.80;78.70;;;;;;5030291;28;20206;-76
2022/06/27 04:26:44;;;;;;;1.10;1.10;;;23.80;78.60;;;;;;5031402;28;20198;-76
2022/06/27 04:29:12;;;;;;;1.63;1.52;;;23.80;78.50;;;;;;5030774;28;20203;-76
2022/06/27 04:31:38;;;;;;;1.40;1.30;;;23.80;78.50;;;;;;5030773;28;20194;-75
2022/06/27 04:34:04;;;;;;;1.15;1.13;;;23.80;78.40;;;;;;5029992;28;20194;-75
2022/06/27 04:36:35;;;;;;;1.10;1.10;;;23.80;78.40;;;;;;5030544;28;20183;-75
2022/06/27 04:39:03;;;;;;;1.60;1.50;;;23.80;78.30;;;;;;5030724;28;20275;-76
2022/06/27 04:42:09;;;;;;;1.13;1.10;;;23.80;78.30;;;;;;5017703;28;20190;-75
2022/06/27 04:44:40;;;;;;;1.20;1.10;;;23.80;78.30;;;;;;5030357;28;20222;-76
2022/06/27 04:47:13;;;;;;;1.30;1.20;;;23.80;78.30;;;;;;5047141;28;20192;-76
2022/06/27 04:50:17;;;;;;;1.23;1.20;;;23.80;78.30;;;;;;5020609;28;20306;-75
2022/06/27 04:52:43;;;;;;;1.10;1.00;;;23.80;78.20;;;;;;5030291;28;20167;-75
2022/06/27 04:55:12;;;;;;;1.20;1.05;;;23.80;78.20;;;;;;5030395;28;20187;-76
2022/06/27 04:57:46;;;;;;;1.08;1.05;;;23.80;78.20;;;;;;5030790;28;20175;-77
2022/06/27 05:00:15;;;;;;;1.20;1.10;;;23.80;78.10;;;;;;5014058;28;20211;-76
2022/06/27 05:03:00;;;;;;;1.02;1.00;;;23.80;78.20;;;;;;5030924;28;20206;-75
2022/06/27 05:05:27;;;;;;;1.00;1.00;;;23.80;78.20;;;;;;5015405;28;20221;-75
2022/06/27 05:07:57;;;;;;;1.30;1.20;;;23.80;78.20;;;;;;5037152;28;20184;-75
2022/06/27 05:10:22;;;;;;;1.25;1.15;;;23.80;78.20;;;;;;5034169;28;20253;-77
2022/06/27 05:12:48;;;;;;;1.00;1.00;;;23.80;78.20;;;;;;5034365;28;20183;-76
2022/06/27 05:15:14;;;;;;;1.25;0.95;;;23.80;78.20;;;;;;5034493;28;20194;-76
2022/06/27 05:17:43;;;;;;;1.13;1.08;;;23.80;78.20;;;;;;5014039;28;20187;-76
2022/06/27 05:20:10;;;;;;;0.80;0.80;;;23.80;78.20;;;;;;5033001;28;20207;-79
2022/06/27 05:22:36;;;;;;;1.05;1.05;;;23.80;78.20;;;;;;5034219;28;20233;-77
2022/06/27 05:25:02;;;;;;;1.00;1.00;;;23.80;78.30;;;;;;5033635;28;20230;-75
2022/06/27 05:27:28;;;;;;;1.15;1.02;;;23.80;78.20;;;;;;5033241;28;20184;-76
2022/06/27 05:29:55;;;;;;;2.95;0.98;;;23.80;78.20;;;;;;5033429;28;20203;-76
2022/06/27 05:32:21;;;;;;;1.40;1.30;;;23.80;78.20;;;;;;5033291;28;20176;-75
2022/06/27 05:34:50;;;;;;;0.82;0.82;;;23.80;78.10;;;;;;5033150;28;20191;-76
2022/06/27 05:37:16;;;;;;;1.10;1.00;;;23.80;78.10;;;;;;5032687;28;20241;-77
2022/06/27 05:39:44;;;;;;;0.90;0.90;;;23.80;78.10;;;;;;5032955;28;20199;-75
2022/06/27 05:42:10;;;;;;;1.10;1.00;;;23.80;78.20;;;;;;5033349;28;20183;-76
2022/06/27 05:44:36;;;;;;;0.98;0.98;;;23.80;78.20;;;;;;5032247;28;20265;-75
2022/06/27 05:47:02;;;;;;;1.17;1.08;;;23.80;78.10;;;;;;5032844;28;20179;-75
2022/06/27 05:49:34;;;;;;;0.85;0.85;;;23.80;78.10;;;;;;5032924;28;20273;-76
2022/06/27 05:52:00;;;;;;;1.00;1.00;;;23.80;78.20;;;;;;5032700;28;20222;-76
2022/06/27 05:54:28;;;;;;;0.80;0.80;;;23.80;78.20;;;;;;5032341;28;20175;-76
2022/06/27 05:56:54;;;;;;;1.13;1.08;;;23.80;78.30;;;;;;5032768;28;20179;-76
2022/06/27 05:59:22;;;;;;;0.90;0.90;;;23.80;78.40;;;;;;5032673;28;20229;-76
2022/06/27 06:01:50;;;;;;;0.95;0.90;;;23.80;78.40;;;;;;5032293;28;20191;-76
2022/06/27 06:04:18;;;;;;;0.77;0.77;;;23.80;78.40;;;;;;5031795;28;20230;-76
2022/06/27 06:06:46;;;;;;;1.02;0.90;;;23.80;78.50;;;;;;5032254;28;20183;-76
2022/06/27 06:09:13;;;;;;;1.08;1.08;;;23.80;78.70;;;;;;5032526;28;20203;-76
2022/06/27 06:11:40;;;;;;;1.00;0.90;;;23.80;78.70;;;;;;5032658;28;20182;-76
2022/06/27 06:14:08;;;;;;;0.80;0.80;;;23.90;78.80;;;;;;5031788;28;20585;-76
2022/06/27 06:16:34;;;;;;;1.13;1.02;;;23.80;78.70;;;;;;5031123;28;20184;-76
2022/06/27 06:19:00;;;;;;;1.00;1.00;;;23.90;78.70;;;;;;5032196;28;20202;-78
2022/06/27 06:21:26;;;;;;;0.70;0.70;;;23.80;78.80;;;;;;5031933;28;20195;-76
2022/06/27 06:23:52;;;;;;;1.00;0.88;;;23.80;78.90;;;;;;5030823;28;20182;-76
2022/06/27 06:26:19;;;;;;;0.60;0.60;;;23.80;78.90;;;;;;5032286;28;20179;-75
2022/06/27 06:28:53;;;;;;;1.17;0.93;;;23.90;78.90;;;;;;5031997;28;20231;-76
2022/06/27 06:31:23;;;;;;;1.02;0.82;;;23.80;78.80;;;;;;5031971;28;20183;-76
2022/06/27 06:33:56;;;;;;;1.10;1.00;;;23.80;78.80;;;;;;5004708;28;20198;-76
2022/06/27 06:36:23;;;;;;;0.88;0.88;;;23.80;78.90;;;;;;5012120;28;20176;-76
2022/06/27 06:38:51;;;;;;;0.75;0.75;;;23.90;79.00;;;;;;5012151;28;20180;-76
2022/06/27 06:41:18;;;;;;;1.00;1.00;;;23.80;79.00;;;;;;5028467;28;20189;-77
2022/06/27 06:43:46;;;;;;;0.80;0.70;;;23.90;79.20;;;;;;5011357;28;20180;-76
2022/06/27 06:46:24;;;;;;;0.90;0.90;;;23.90;79.40;;;;;;5012127;28;20214;-76
2022/06/27 06:49:02;;;;;;;1.02;0.70;;;23.80;79.20;;;;;;5011780;28;20204;-76
2022/06/27 06:51:34;;;;;;;1.13;1.05;;;23.90;79.50;;;;;;5012024;28;20549;-76
2022/06/27 06:54:05;;;;;;;0.75;0.65;;;23.90;79.70;;;;;;5011232;28;20644;-78
2022/06/27 06:56:32;;;;;;;2.13;0.77;;;23.80;79.50;;;;;;5011688;28;20270;-76
2022/06/27 06:58:59;;;;;;;1.00;1.00;;;23.90;79.60;;;;;;5011722;28;20667;-76
2022/06/27 07:01:27;;;;;;;1.02;0.90;;;23.90;79.60;;;;;;4995033;28;20196;-76
2022/06/27 07:03:56;;;;;;;0.77;0.77;;;23.90;79.60;;;;;;5011042;28;20187;-76
2022/06/27 07:06:24;;;;;;;0.70;0.70;;;23.90;79.50;;;;;;5011615;28;20204;-76
2022/06/27 07:08:57;;;;;;;1.85;0.90;;;23.80;79.40;;;;;;5011866;28;20239;-76
2022/06/27 07:11:29;;;;;;;1.10;0.90;;;23.90;79.60;;;;;;5011648;28;20176;-76
2022/06/27 07:13:58;;;;;;;0.80;0.80;;;23.90;79.60;;;;;;5010971;28;20187;-76
2022/06/27 07:16:25;;;;;;;0.70;0.70;;;23.80;79.60;;;;;;5012626;28;20180;-76
2022/06/27 07:18:56;;;;;;;1.10;0.65;;;23.90;79.80;;;;;;5011207;28;20203;-76
2022/06/27 07:21:25;;;;;;;1.02;0.77;;;23.90;80.00;;;;;;5013757;28;20180;-76
2022/06/27 07:23:52;;;;;;;0.98;0.85;;;23.90;80.00;;;;;;5010581;28;20183;-76
2022/06/27 07:26:19;;;;;;;0.80;0.80;;;23.90;80.00;;;;;;5012490;28;20176;-77
2022/06/27 07:28:47;;;;;;;1.27;0.90;;;23.90;79.90;;;;;;5010975;28;20570;-75
2022/06/27 07:31:13;;;;;;;0.80;0.80;;;23.90;79.90;;;;;;5011078;28;20180;-76
2022/06/27 07:33:45;;;;;;;1.08;0.88;;;23.90;80.00;;;;;;5010609;28;20176;-76
2022/06/27 07:36:16;;;;;;;0.70;0.70;;;23.90;80.00;;;;;;5012318;28;20278;-76
2022/06/27 07:38:43;;;;;;;0.88;0.60;;;23.90;80.10;;;;;;5011170;28;20195;-75
2022/06/27 07:41:09;;;;;;;1.08;0.90;;;23.90;79.90;;;;;;5011136;28;20230;-76
2022/06/27 07:43:37;;;;;;;1.05;0.90;;;23.90;79.70;;;;;;5010493;28;20206;-76
2022/06/27 07:46:05;;;;;;;0.75;0.75;;;23.90;79.60;;;;;;5010966;28;20226;-76
2022/06/27 07:48:32;;;;;;;0.73;0.73;;;23.90;79.40;;;;;;5010962;28;20666;-76
2022/06/27 07:50:58;;;;;;;1.73;0.98;;;23.90;79.30;;;;;;5010744;28;20204;-76
2022/06/27 07:53:26;;;;;;;0.80;0.80;;;24.00;79.30;;;;;;5026765;28;20283;-76
2022/06/27 07:55:58;;;;;;;0.70;0.70;;;23.90;79.30;;;;;;5010965;28;20623;-76
2022/06/27 07:58:38;;;;;;;0.90;0.70;;;24.00;79.50;;;;;;5010901;28;20188;-76
2022/06/27 08:01:11;;;;;;;0.70;0.70;;;23.90;79.50;;;;;;5010599;28;20208;-76
2022/06/27 08:03:44;;;;;;;1.10;0.85;;;23.90;79.70;;;;;;5010253;28;20188;-76
2022/06/27 08:06:23;;;;;;;0.80;0.80;;;24.00;79.60;;;;;;5010858;28;20240;-76
2022/06/27 08:08:52;;;;;;;1.20;1.05;;;23.90;79.80;;;;;;5010826;28;20647;-76
2022/06/27 08:11:25;;;;;;;0.95;0.95;;;24.00;80.00;;;;;;5011045;28;20204;-77
2022/06/27 08:13:54;;;;;;;0.90;0.90;;;24.00;79.90;;;;;;5011547;28;20598;-75
2022/06/27 08:16:24;;;;;;;1.55;0.90;;;24.00;79.80;;;;;;5010722;28;20259;-76
2022/06/27 08:18:52;;;;;;;1.00;1.00;;;24.00;79.80;;;;;;5010507;28;20245;-76
2022/06/27 08:21:23;;;;;;;0.88;0.77;;;24.00;79.60;;;;;;5010784;28;20184;-75
2022/06/27 08:23:51;;;;;;;0.93;0.90;;;24.00;79.90;;;;;;5010030;28;20287;-76
2022/06/27 08:26:18;;;;;;;1.13;0.75;;;24.00;80.00;;;;;;5013615;28;20187;-75
2022/06/27 08:28:49;;;;;;;0.88;0.52;;;24.00;79.80;;;;;;5030241;28;20176;-76
2022/06/27 08:31:15;;;;;;;0.57;0.57;;;24.00;79.70;;;;;;5030417;28;20183;-76
2022/06/27 08:33:46;;;;;;;0.90;0.90;;;24.00;79.60;;;;;;5029854;28;20184;-78
2022/06/27 08:36:14;;;;;;;1.00;0.90;;;24.00;79.60;;;;;;5030246;28;20673;-76
2022/06/27 08:38:50;;;;;;;2.10;0.90;;;24.00;79.70;;;;;;5030259;28;20294;-76
2022/06/27 08:41:19;;;;;;;0.85;0.75;;;24.00;79.60;;;;;;5033243;28;20191;-76
2022/06/27 08:43:47;;;;;;;0.98;0.80;;;24.10;79.70;;;;;;5029132;28;20648;-76
2022/06/27 08:46:15;;;;;;;0.85;0.70;;;24.00;79.60;;;;;;5014006;28;20269;-76
2022/06/27 08:48:45;;;;;;;1.00;0.90;;;24.00;79.60;;;;;;5015358;28;20176;-75
2022/06/27 08:51:14;;;;;;;0.95;0.73;;;24.10;79.50;;;;;;5014104;28;20282;-76
2022/06/27 08:53:41;;;;;;;0.77;0.75;;;24.10;79.30;;;;;;4997225;28;20207;-76
2022/06/27 08:56:10;;;;;;;0.73;0.70;;;24.10;79.20;;;;;;5013654;28;20188;-76
2022/06/27 08:58:37;;;;;;;0.70;0.70;;;24.10;79.20;;;;;;5014010;28;20244;-77
2022/06/27 09:01:04;;;;;;;0.98;0.65;;;24.10;79.10;;;;;;5013625;28;20702;-76
2022/06/27 09:03:32;;;;;;;0.82;0.68;;;24.10;79.10;;;;;;5013147;28;20238;-78
2022/06/27 09:06:10;;;;;;;0.52;0.52;;;24.10;79.20;;;;;;5013893;28;20305;-76
2022/06/27 09:09:03;;;;;;;1.00;0.80;;;24.10;79.20;;;;;;5013840;28;20624;-75
2022/06/27 09:11:32;;;;;;;0.70;0.70;;;24.10;79.20;;;;;;5013970;28;20212;-76
2022/06/27 09:13:59;;;;;;;1.23;0.70;;;24.10;79.30;;;;;;5015397;28;20195;-76
2022/06/27 09:16:25;;;;;;;1.00;0.82;;;24.10;79.20;;;;;;5013561;28;20274;-76
2022/06/27 09:18:51;;;;;;;0.95;0.70;;;24.10;79.40;;;;;;5013473;28;20176;-78
2022/06/27 09:21:17;;;;;;;1.98;0.65;;;24.10;79.40;;;;;;5013814;28;20187;-75
2022/06/27 09:23:49;;;;;;;0.80;0.70;;;24.10;79.30;;;;;;4996537;28;20189;-76
2022/06/27 09:26:19;;;;;;;0.70;0.70;;;24.10;79.40;;;;;;5013559;28;20218;-76
2022/06/27 09:28:58;;;;;;;0.70;0.70;;;24.10;79.60;;;;;;4997642;28;20188;-76
2022/06/27 09:31:27;;;;;;;0.90;0.82;;;24.20;79.40;;;;;;5013499;28;20168;-76
2022/06/27 09:34:23;;;;;;;1.15;0.85;;;24.10;79.10;;;;;;4996610;28;20216;-76
2022/06/27 09:37:00;;;;;;;0.70;0.70;;;24.10;79.40;;;;;;5013377;28;20680;-75
2022/06/27 09:39:36;;;;;;;0.88;0.73;;;24.10;79.30;;;;;;5013757;28;20257;-76
2022/06/27 09:42:09;;;;;;;0.80;0.80;;;24.10;79.50;;;;;;5013767;28;20219;-76
2022/06/27 09:44:45;;;;;;;1.98;0.90;;;24.20;79.60;;;;;;5013296;28;20211;-76
2022/06/27 09:47:25;;;;;;;1.58;0.98;;;24.10;79.50;;;;;;4997842;28;20214;-77
2022/06/27 09:49:56;;;;;;;1.00;0.80;;;24.10;79.60;;;;;;5014754;28;20233;-77
2022/06/27 09:52:26;;;;;;;0.85;0.85;;;24.10;79.60;;;;;;4997300;28;20172;-76
2022/06/27 09:54:55;;;;;;;0.77;0.75;;;24.20;80.20;;;;;;5012982;28;20176;-76
2022/06/27 09:57:22;;;;;;;0.63;0.63;;;24.10;79.70;;;;;;4997180;28;20226;-76
2022/06/27 09:59:51;;;;;;;0.75;0.75;;;24.10;79.70;;;;;;4996607;28;20215;-75
2022/06/27 10:02:19;;;;;;;0.90;0.70;;;24.20;79.80;;;;;;4996993;28;20230;-76
2022/06/27 10:04:51;;;;;;;0.85;0.80;;;24.10;79.90;;;;;;5012736;28;20229;-76
2022/06/27 10:07:19;;;;;;;0.70;0.70;;;24.10;79.90;;;;;;5013528;28;20189;-75
2022/06/27 10:09:48;;;;;;;0.73;0.73;;;24.10;79.80;;;;;;5013018;28;20200;-76
2022/06/27 10:12:28;;;;;;;0.80;0.60;;;24.20;79.80;;;;;;5013486;28;20553;-76
2022/06/27 10:15:14;;;;;;;0.63;0.63;;;24.20;80.10;;;;;;4996171;28;20179;-76
2022/06/27 10:17:46;;;;;;;1.50;0.95;;;24.10;80.10;;;;;;5012910;28;20223;-76
2022/06/27 10:20:29;;;;;;;1.30;0.70;;;24.20;80.20;;;;;;4996606;28;20226;-76
2022/06/27 10:23:25;;;;;;;0.75;0.75;;;24.10;79.90;;;;;;5012458;28;20562;-76
2022/06/27 10:25:52;;;;;;;0.82;0.70;;;24.20;80.00;;;;;;5012625;28;20621;-77
2022/06/27 10:28:21;;;;;;;1.48;0.70;;;24.20;80.10;;;;;;5012870;28;20185;-76
2022/06/27 10:30:53;;;;;;;0.68;0.68;;;24.20;80.10;;;;;;5015071;28;20204;-76
2022/06/27 10:33:25;;;;;;;0.52;0.52;;;24.20;80.20;;;;;;5046325;28;20559;-77
2022/06/27 10:35:57;;;;;;;0.73;0.63;;;24.20;80.40;;;;;;5016177;28;20230;-75
2022/06/27 10:38:48;;;;;;;1.33;1.00;;;24.20;80.40;;;;;;5032521;28;20175;-76
2022/06/27 10:41:17;;;;;;;0.80;0.80;;;24.20;80.70;;;;;;5032292;28;20655;-76
2022/06/27 10:43:49;;;;;;;1.50;1.00;;;24.20;81.20;;;;;;5032238;28;20191;-76
2022/06/27 10:46:15;;;;;;;0.65;0.60;;;24.20;81.30;;;;;;5024033;28;20200;-75
2022/06/27 10:48:50;;;;;;;0.80;0.80;;;24.20;80.90;;;;;;5029067;28;20205;-76
2022/06/27 10:51:27;;;;;;;0.93;0.90;;;24.20;80.50;;;;;;5032316;28;20171;-76
2022/06/27 10:54:05;;;;;;;1.30;0.80;;;24.20;80.80;;;;;;5017388;28;20199;-76
2022/06/27 10:56:31;;;;;;;2.38;0.82;;;24.20;81.00;;;;;;5021852;28;20184;-77
2022/06/27 10:59:28;;;;;;;1.02;0.85;;;24.20;80.90;;;;;;5008811;28;20194;-75
2022/06/27 11:01:53;;;;;;;0.98;0.90;;;24.20;81.10;;;;;;5012439;28;20218;-76
2022/06/27 11:04:34;;;;;;;1.02;0.88;;;24.20;80.90;;;;;;5013514;28;20215;-77
2022/06/27 11:07:07;;;;;;;1.55;0.88;;;24.20;81.40;;;;;;5012620;28;20182;-76
2022/06/27 11:09:43;;;;;;;1.85;0.77;;;24.20;81.30;;;;;;5024438;28;20238;-75
2022/06/27 11:12:12;;;;;;;1.60;0.82;;;24.20;81.80;;;;;;5026319;28;20179;-75
2022/06/27 11:14:57;;;;;;;0.88;0.88;;;24.20;81.70;;;;;;5047603;28;20229;-77
2022/06/27 11:17:41;;;;;;;1.73;0.95;;;24.20;81.40;;;;;;5015148;28;20186;-76
2022/06/27 11:20:25;;;;;;;1.38;0.77;;;24.20;81.70;;;;;;5014810;28;20761;-77
2022/06/27 11:22:57;;;;;;;1.50;0.98;;;24.30;81.70;;;;;;5031667;28;20176;-77
2022/06/27 11:25:27;;;;;;;2.75;0.80;;;24.20;81.90;;;;;;5048098;28;20268;-77
2022/06/27 11:31:57;;;;;;;0.77;0.77;;;24.20;81.60;;;;;;5031762;28;20259;-77
2022/06/27 11:33:33;;;;;;;1.15;1.02;;;24.20;81.40;;;;;;5032120;28;20241;-76
2022/06/27 11:36:00;;;;;;;1.88;0.88;;;24.30;81.50;;;;;;5048231;28;20187;-76
2022/06/27 11:38:39;;;;;;;0.90;0.63;;;24.20;81.40;;;;;;5031397;28;20179;-77
2022/06/27 11:41:13;;;;;;;2.58;0.80;;;24.30;81.60;;;;;;5032058;28;20206;-77
2022/06/27 11:43:56;;;;;;;1.48;1.17;;;24.30;81.60;;;;;;5030846;28;20289;-78
2022/06/27 11:46:45;;;;;;;0.93;0.90;;;24.20;81.90;;;;;;5032394;28;20199;-77
2022/06/27 11:49:31;;;;;;;1.02;0.80;;;24.20;81.60;;;;;;5031482;28;20254;-77
2022/06/27 11:52:12;;;;;;;1.02;0.93;;;24.30;81.50;;;;;;5031332;28;20194;-78
2022/06/27 11:54:41;;;;;;;1.13;0.80;;;24.30;81.50;;;;;;5047407;28;20222;-77
2022/06/27 11:57:34;;;;;;;0.85;0.80;;;24.30;81.80;;;;;;5032581;28;20183;-77
2022/06/27 12:00:03;;;;;;;0.68;0.68;;;24.30;81.90;;;;;;5030348;28;20199;-77
2022/06/27 12:02:35;;;;;;;0.95;0.80;;;24.30;82.30;;;;;;5032415;28;20235;-76
2022/06/27 12:05:16;;;;;;;1.02;0.95;;;24.30;82.00;;;;;;5030638;28;20293;-77
2022/06/27 12:08:12;;;;;;;0.63;0.63;;;24.20;83.00;;;;;;5032619;28;20172;-76
2022/06/27 12:10:44;;;;;;;0.80;0.80;;;24.20;82.70;;;;;;5031454;28;20199;-78
2022/06/27 12:13:16;;;;;;;1.40;1.00;;;24.20;82.40;;;;;;5014410;28;20183;-76
2022/06/27 12:15:46;;;;;;;0.90;0.90;;;24.20;82.40;;;;;;5033100;28;20194;-77
2022/06/27 12:18:13;;;;;;;1.25;0.85;;;24.30;82.60;;;;;;5018824;28;20190;-77
2022/06/27 12:20:43;;;;;;;0.80;0.77;;;24.30;82.20;;;;;;5018305;28;20215;-76
2022/06/27 12:23:10;;;;;;;0.88;0.88;;;24.30;82.30;;;;;;5035354;28;20281;-78
2022/06/27 12:25:36;;;;;;;0.90;0.90;;;24.30;82.40;;;;;;5043765;28;20264;-77
2022/06/27 12:28:08;;;;;;;1.05;0.75;;;24.30;82.50;;;;;;5048431;28;20198;-79
2022/06/27 12:30:34;;;;;;;0.93;0.90;;;24.30;82.60;;;;;;5030843;28;20235;-77
2022/06/27 12:33:00;;;;;;;1.00;0.77;;;24.20;82.40;;;;;;5050696;28;20193;-82
2022/06/27 12:35:26;;;;;;;0.90;0.90;;;24.30;82.80;;;;;;5048962;28;20669;-79
2022/06/27 12:38:01;;;;;;;1.25;0.80;;;24.30;82.70;;;;;;5054466;28;20175;-80
2022/06/27 12:40:27;;;;;;;0.80;0.80;;;24.30;83.40;;;;;;5032189;28;20289;-77
2022/06/27 12:42:53;;;;;;;1.27;1.08;;;24.30;83.10;;;;;;5021303;28;20199;-76
2022/06/27 12:45:20;;;;;;;1.50;0.80;;;24.30;82.60;;;;;;5038427;28;20286;-76
2022/06/27 12:47:45;;;;;;;1.42;0.80;;;24.30;83.00;;;;;;5027878;28;20216;-75
2022/06/27 12:50:11;;;;;;;1.98;1.00;;;24.30;83.00;;;;;;5017651;28;20204;-75
2022/06/27 12:52:37;;;;;;;1.67;0.73;;;24.30;82.70;;;;;;5018553;28;20184;-75
2022/06/27 12:55:04;;;;;;;1.80;1.17;;;24.30;82.80;;;;;;5018553;28;20193;-74
2022/06/27 12:57:29;;;;;;;1.85;0.88;;;24.30;82.50;;;;;;5017216;28;20188;-75
2022/06/27 12:59:55;;;;;;;0.80;0.80;;;24.30;82.40;;;;;;5015640;28;20215;-75
2022/06/27 13:02:21;;;;;;;1.13;1.00;;;24.30;82.70;;;;;;5018170;28;20192;-75
2022/06/27 13:04:47;;;;;;;0.75;0.75;;;24.30;82.70;;;;;;5019675;28;20279;-76
2022/06/27 13:07:12;;;;;;;1.58;0.80;;;24.30;82.80;;;;;;5019130;28;20223;-78
2022/06/27 13:09:39;;;;;;;1.08;1.00;;;24.30;82.70;;;;;;5018550;28;20219;-76
2022/06/27 13:12:06;;;;;;;1.10;0.90;;;24.30;82.90;;;;;;5015844;28;20204;-77